createdAt,value
2017-09-03T00:00:04.803Z,9.57
2017-09-03T00:02:30.980Z,8.53
2017-09-03T00:04:57.942Z,8.83
2017-09-03T00:07:24.224Z,6.90
2017-09-03T00:09:50.398Z,7.90
2017-09-03T00:12:16.592Z,7.67
2017-09-03T00:14:42.761Z,7.60
2017-09-03T00:17:08.910Z,6.53
2017-09-03T00:19:35.885Z,7.47
2017-09-03T00:22:02.064Z,7.73
2017-09-03T00:24:28.316Z,6.57
2017-09-03T00:26:54.503Z,9.50
2017-09-03T00:29:20.680Z,7.33
2017-09-03T00:31:46.911Z,9.70
2017-09-03T00:34:13.097Z,6.93
2017-09-03T00:36:39.270Z,9.30
2017-09-03T00:39:05.427Z,9.47
2017-09-03T00:41:32.056Z,9.00
2017-09-03T00:43:58.228Z,8.50
2017-09-03T00:46:24.428Z,10.50
2017-09-03T00:48:50.641Z,13.43
2017-09-03T00:51:16.932Z,9.37
2017-09-03T00:53:43.133Z,9.00
2017-09-03T00:56:09.355Z,8.93
2017-09-03T00:58:36.721Z,9.47
2017-09-03T01:01:02.890Z,7.77
2017-09-03T01:03:29.155Z,8.80
2017-09-03T01:05:55.334Z,9.27
2017-09-03T01:08:21.540Z,9.33
2017-09-03T01:10:47.687Z,9.70
2017-09-03T01:13:13.843Z,7.90
2017-09-03T01:15:40.088Z,8.90
2017-09-03T01:18:06.262Z,8.93
2017-09-03T01:20:32.487Z,10.37
2017-09-03T01:22:58.692Z,9.07
2017-09-03T01:25:24.862Z,9.00
2017-09-03T01:27:51.289Z,10.07
2017-09-03T01:30:17.480Z,9.87
2017-09-03T01:32:43.630Z,9.00
2017-09-03T01:35:09.860Z,7.93
2017-09-03T01:37:37.562Z,8.23
2017-09-03T01:40:03.741Z,12.40
2017-09-03T01:42:30.843Z,9.63
2017-09-03T01:44:57.001Z,9.23
2017-09-03T01:47:23.273Z,10.53
2017-09-03T01:49:49.842Z,7.17
2017-09-03T01:52:16.042Z,7.50
2017-09-03T01:54:42.215Z,6.97
2017-09-03T01:57:08.394Z,7.20
2017-09-03T01:59:36.047Z,8.07
2017-09-03T02:02:02.209Z,8.60
2017-09-03T02:04:28.392Z,6.83
2017-09-03T02:06:54.575Z,5.87
2017-09-03T02:09:20.784Z,6.80
2017-09-03T02:11:47.010Z,6.80
2017-09-03T02:14:13.188Z,6.63
2017-09-03T02:16:39.372Z,6.00
2017-09-03T02:19:05.559Z,7.80
2017-09-03T02:21:31.790Z,7.63
2017-09-03T02:23:57.943Z,5.57
2017-09-03T02:26:24.091Z,7.60
2017-09-03T02:28:50.245Z,7.93
2017-09-03T02:31:16.518Z,7.93
2017-09-03T02:33:42.661Z,10.50
2017-09-03T02:36:08.868Z,8.50
2017-09-03T02:38:35.060Z,8.10
2017-09-03T02:41:01.256Z,9.13
2017-09-03T02:43:28.012Z,6.60
2017-09-03T02:45:54.177Z,5.20
2017-09-03T02:48:20.723Z,7.27
2017-09-03T02:50:46.931Z,7.50
2017-09-03T02:53:13.766Z,5.70
2017-09-03T02:55:39.944Z,5.63
2017-09-03T02:58:06.127Z,6.80
2017-09-03T03:00:32.280Z,7.33
2017-09-03T03:02:58.510Z,7.70
2017-09-03T03:05:24.697Z,12.73
2017-09-03T03:07:51.222Z,8.50
2017-09-03T03:10:17.380Z,6.70
2017-09-03T03:12:43.506Z,7.00
2017-09-03T03:15:09.702Z,11.27
2017-09-03T03:17:35.872Z,9.70
2017-09-03T03:20:02.043Z,7.03
2017-09-03T03:22:28.946Z,5.70
2017-09-03T03:24:55.130Z,4.93
2017-09-03T03:27:21.254Z,8.43
2017-09-03T03:29:47.466Z,7.37
2017-09-03T03:32:13.995Z,8.20
2017-09-03T03:34:40.523Z,6.77
2017-09-03T03:37:06.752Z,6.00
2017-09-03T03:39:32.915Z,5.60
2017-09-03T03:41:59.106Z,5.83
2017-09-03T03:44:25.250Z,7.00
2017-09-03T03:46:52.218Z,6.27
2017-09-03T03:49:18.403Z,7.00
2017-09-03T03:51:44.595Z,7.50
2017-09-03T03:54:10.759Z,7.23
2017-09-03T03:56:36.956Z,5.73
2017-09-03T03:59:03.384Z,6.83
2017-09-03T04:01:29.912Z,7.27
2017-09-03T04:03:56.135Z,5.73
2017-09-03T04:06:22.658Z,7.17
2017-09-03T04:08:48.827Z,7.77
2017-09-03T04:11:15.027Z,4.43
2017-09-03T04:13:41.202Z,5.73
2017-09-03T04:16:07.370Z,6.70
2017-09-03T04:18:33.579Z,9.97
2017-09-03T04:20:59.753Z,7.90
2017-09-03T04:23:25.923Z,5.83
2017-09-03T04:25:52.113Z,6.63
2017-09-03T04:28:18.280Z,9.83
2017-09-03T04:30:44.521Z,5.60
2017-09-03T04:33:10.727Z,7.67
2017-09-03T04:35:36.899Z,4.87
2017-09-03T04:38:03.081Z,5.50
2017-09-03T04:40:29.722Z,5.30
2017-09-03T04:42:55.926Z,6.13
2017-09-03T04:45:22.091Z,5.13
2017-09-03T04:47:48.263Z,7.13
2017-09-03T04:50:14.439Z,7.63
2017-09-03T04:52:40.614Z,6.60
2017-09-03T04:55:06.783Z,5.40
2017-09-03T04:57:32.974Z,6.20
2017-09-03T04:59:59.187Z,7.30
2017-09-03T05:02:25.392Z,7.40
2017-09-03T05:04:52.715Z,6.07
2017-09-03T05:07:19.002Z,5.70
2017-09-03T05:09:45.238Z,9.50
2017-09-03T05:12:11.452Z,5.70
2017-09-03T05:14:37.623Z,5.47
2017-09-03T05:17:03.809Z,5.27
2017-09-03T05:29:20.058Z,5.70
2017-09-03T05:31:46.294Z,7.30
2017-09-03T05:34:12.454Z,5.90
2017-09-03T05:36:38.666Z,8.47
2017-09-03T05:39:06.343Z,4.90
2017-09-03T05:41:32.500Z,9.67
2017-09-03T05:43:58.746Z,6.30
2017-09-03T05:46:24.931Z,6.40
2017-09-03T05:48:51.114Z,4.73
2017-09-03T05:51:17.350Z,4.77
2017-09-03T05:53:43.675Z,5.47
2017-09-03T05:56:09.994Z,6.00
2017-09-03T05:58:36.199Z,5.77
2017-09-03T06:10:47.423Z,6.60
2017-09-03T06:13:13.642Z,8.03
2017-09-03T06:15:39.859Z,4.83
2017-09-03T06:18:06.085Z,5.30
2017-09-03T06:20:32.246Z,6.27
2017-09-03T06:22:59.307Z,6.90
2017-09-03T06:25:25.503Z,5.67
2017-09-03T06:27:51.714Z,6.33
2017-09-03T06:30:17.951Z,6.80
2017-09-03T06:32:44.138Z,8.03
2017-09-03T06:35:10.334Z,7.37
2017-09-03T06:37:36.956Z,8.30
2017-09-03T06:40:03.124Z,6.13
2017-09-03T06:42:29.307Z,12.13
2017-09-03T06:44:55.495Z,9.07
2017-09-03T06:47:21.684Z,11.67
2017-09-03T06:49:47.857Z,12.17
2017-09-03T06:52:14.027Z,11.03
2017-09-03T06:54:40.214Z,12.90
2017-09-03T06:57:06.386Z,10.70
2017-09-03T06:59:32.606Z,9.47
2017-09-03T07:01:58.815Z,12.17
2017-09-03T07:04:25.007Z,12.00
2017-09-03T07:06:51.167Z,10.73
2017-09-03T07:09:17.338Z,11.53
2017-09-03T07:11:43.521Z,12.00
2017-09-03T07:14:09.739Z,11.27
2017-09-03T07:16:35.928Z,9.83
2017-09-03T07:19:02.085Z,10.17
2017-09-03T07:21:28.246Z,11.90
2017-09-03T07:23:54.406Z,11.60
2017-09-03T07:26:20.594Z,11.07
2017-09-03T07:28:46.775Z,9.70
2017-09-03T07:31:13.660Z,10.57
2017-09-03T07:33:39.854Z,9.77
2017-09-03T07:36:06.127Z,10.50
2017-09-03T07:38:32.426Z,13.23
2017-09-03T07:40:58.613Z,12.87
2017-09-03T07:43:24.782Z,11.13
2017-09-03T07:45:50.975Z,11.03
2017-09-03T07:48:17.186Z,11.90
2017-09-03T07:50:43.342Z,12.47
2017-09-03T07:53:09.559Z,16.93
2017-09-03T07:55:36.502Z,13.70
2017-09-03T08:07:52.763Z,18.07
2017-09-03T08:10:18.955Z,18.47
2017-09-03T08:12:45.148Z,18.97
2017-09-03T08:15:11.322Z,22.17
2017-09-03T08:17:37.499Z,18.87
2017-09-03T08:20:04.508Z,23.10
2017-09-03T08:22:31.066Z,22.10
2017-09-03T08:24:58.040Z,19.90
2017-09-03T08:27:24.340Z,17.87
2017-09-03T08:29:50.493Z,18.30
2017-09-03T08:32:16.694Z,21.83
2017-09-03T08:34:42.934Z,14.10
2017-09-03T08:37:09.140Z,16.13
2017-09-03T08:39:35.334Z,16.07
2017-09-03T08:42:01.581Z,14.77
2017-09-03T08:44:27.792Z,15.60
2017-09-03T08:46:54.004Z,11.90
2017-09-03T08:49:20.939Z,15.23
2017-09-03T08:51:47.972Z,19.10
2017-09-03T08:54:14.158Z,16.90
2017-09-03T08:56:40.351Z,12.87
2017-09-03T08:59:06.509Z,18.03
2017-09-03T09:01:32.687Z,13.63
2017-09-03T09:03:58.877Z,12.27
2017-09-03T09:06:25.099Z,9.43
2017-09-03T09:08:51.663Z,10.10
2017-09-03T09:11:18.567Z,10.10
2017-09-03T09:13:44.767Z,10.23
2017-09-03T09:16:11.667Z,9.10
2017-09-03T09:18:37.881Z,10.17
2017-09-03T09:21:04.077Z,14.70
2017-09-03T09:23:30.310Z,10.60
2017-09-03T09:25:58.798Z,12.63
2017-09-03T09:28:25.040Z,12.53
2017-09-03T09:30:51.312Z,12.70
2017-09-03T09:33:17.529Z,15.40
2017-09-03T09:35:44.042Z,11.10
2017-09-03T09:38:10.246Z,12.60
2017-09-03T09:40:36.845Z,12.80
2017-09-03T09:43:03.102Z,11.40
2017-09-03T09:45:29.580Z,12.23
2017-09-03T09:47:55.781Z,12.23
2017-09-03T09:50:27.918Z,18.50
2017-09-03T09:52:55.316Z,16.83
2017-09-03T09:55:22.193Z,13.90
2017-09-03T09:57:48.416Z,15.30
2017-09-03T10:00:15.047Z,11.43
2017-09-03T10:02:41.273Z,11.27
2017-09-03T10:05:08.434Z,13.50
2017-09-03T10:07:34.988Z,13.00
2017-09-03T10:10:03.495Z,18.80
2017-09-03T10:12:29.694Z,18.30
2017-09-03T10:14:56.254Z,22.57
2017-09-03T10:17:23.262Z,23.17
2017-09-03T10:19:49.419Z,17.63
2017-09-03T10:22:15.642Z,20.93
2017-09-03T10:24:42.313Z,22.33
2017-09-03T10:27:09.372Z,19.23
2017-09-03T10:29:35.592Z,15.50
2017-09-03T10:32:01.928Z,15.97
2017-09-03T10:34:30.079Z,13.67
2017-09-03T10:36:56.317Z,14.03
2017-09-03T10:39:22.920Z,13.57
2017-09-03T10:41:49.163Z,14.27
2017-09-03T10:44:15.511Z,13.20
2017-09-03T10:46:41.675Z,12.60
2017-09-03T10:49:07.868Z,13.23
2017-09-03T10:51:34.813Z,13.47
2017-09-03T10:54:01.343Z,10.30
2017-09-03T10:56:28.463Z,9.07
2017-09-03T10:58:54.767Z,8.70
2017-09-03T11:01:20.954Z,9.70
2017-09-03T11:03:47.189Z,9.20
2017-09-03T11:06:13.415Z,8.17
2017-09-03T11:08:39.597Z,7.93
2017-09-03T11:11:07.540Z,9.67
2017-09-03T11:13:34.016Z,9.17
2017-09-03T11:16:00.872Z,10.03
2017-09-03T11:18:27.065Z,9.67
2017-09-03T11:20:53.402Z,9.20
2017-09-03T11:23:19.638Z,10.93
2017-09-03T11:25:45.856Z,9.13
2017-09-03T11:28:12.192Z,8.03
2017-09-03T11:30:38.393Z,8.80
2017-09-03T11:33:05.191Z,9.10
2017-09-03T11:35:31.523Z,8.67
2017-09-03T11:37:57.703Z,9.90
2017-09-03T11:40:23.913Z,20.83
2017-09-03T11:42:50.095Z,15.60
2017-09-03T11:45:16.267Z,8.73
2017-09-03T11:47:42.823Z,8.13
2017-09-03T11:50:11.037Z,9.53
2017-09-03T11:52:38.621Z,7.13
2017-09-03T11:55:04.803Z,6.40
2017-09-03T11:57:31.007Z,5.90
2017-09-03T11:59:57.511Z,7.33
2017-09-03T12:02:23.855Z,7.77
2017-09-03T12:04:50.077Z,7.37
2017-09-03T12:07:16.282Z,8.70
2017-09-03T12:09:42.494Z,6.07
2017-09-03T12:12:08.714Z,6.77
2017-09-03T12:14:34.909Z,7.10
2017-09-03T12:17:01.115Z,9.40
2017-09-03T12:19:27.283Z,9.90
2017-09-03T12:21:54.242Z,7.80
2017-09-03T12:24:20.431Z,5.17
2017-09-03T12:26:46.653Z,5.53
2017-09-03T12:29:12.831Z,6.57
2017-09-03T12:31:39.155Z,9.00
2017-09-03T12:34:05.427Z,5.90
2017-09-03T12:36:32.716Z,8.37
2017-09-03T12:38:58.892Z,5.43
2017-09-03T12:41:25.087Z,6.30
2017-09-03T12:43:51.243Z,10.17
2017-09-03T12:46:17.453Z,5.90
2017-09-03T12:48:45.242Z,7.33
2017-09-03T12:51:11.526Z,5.10
2017-09-03T12:53:37.723Z,4.63
2017-09-03T12:56:04.588Z,4.30
2017-09-03T12:58:30.770Z,3.83
2017-09-03T13:00:57.006Z,4.40
2017-09-03T13:03:24.139Z,4.77
2017-09-03T13:05:51.542Z,6.93
2017-09-03T13:08:17.679Z,4.97
2017-09-03T13:10:46.915Z,4.10
2017-09-03T13:13:13.156Z,8.63
2017-09-03T13:15:40.395Z,4.13
2017-09-03T13:18:06.933Z,4.63
2017-09-03T13:20:33.219Z,3.20
2017-09-03T13:23:00.078Z,6.07
2017-09-03T13:25:27.316Z,4.13
2017-09-03T13:27:53.491Z,6.53
2017-09-03T13:30:20.407Z,5.20
2017-09-03T13:32:46.630Z,4.67
2017-09-03T13:35:12.854Z,6.60
2017-09-03T13:37:39.122Z,5.97
2017-09-03T13:40:05.395Z,5.20
2017-09-03T13:42:32.217Z,3.80
2017-09-03T13:44:58.426Z,5.13
2017-09-03T13:47:25.292Z,4.00
2017-09-03T13:49:51.517Z,7.57
2017-09-03T13:52:17.694Z,4.83
2017-09-03T13:54:43.899Z,5.40
2017-09-03T13:57:11.053Z,3.80
2017-09-03T13:59:37.261Z,4.87
2017-09-03T14:02:03.450Z,6.23
2017-09-03T14:04:30.462Z,5.37
2017-09-03T14:06:56.646Z,6.83
2017-09-03T14:09:22.842Z,4.43
2017-09-03T14:11:49.000Z,3.87
2017-09-03T14:14:15.199Z,4.40
2017-09-03T14:16:41.468Z,4.97
2017-09-03T14:19:07.758Z,4.77
2017-09-03T14:21:34.130Z,3.70
2017-09-03T14:24:01.734Z,4.30
2017-09-03T14:26:27.941Z,4.17
2017-09-03T14:28:54.235Z,4.57
2017-09-03T14:31:20.674Z,3.83
2017-09-03T14:33:46.959Z,3.40
2017-09-03T14:36:13.151Z,5.13
2017-09-03T14:38:40.331Z,5.50
2017-09-03T14:41:06.572Z,6.83
2017-09-03T14:43:32.774Z,4.80
2017-09-03T14:45:58.943Z,4.10
2017-09-03T14:48:25.272Z,3.87
2017-09-03T14:50:51.471Z,4.83
2017-09-03T14:53:18.822Z,3.80
2017-09-03T14:55:45.117Z,4.10
2017-09-03T14:58:14.715Z,5.77
2017-09-03T15:00:40.931Z,3.63
2017-09-03T15:03:07.127Z,4.80
2017-09-03T15:05:33.298Z,6.47
2017-09-03T15:07:59.542Z,6.00
2017-09-03T15:10:25.723Z,6.47
2017-09-03T15:12:51.974Z,6.67
2017-09-03T15:15:18.134Z,5.30
2017-09-03T15:17:44.452Z,4.53
2017-09-03T15:20:10.648Z,5.83
2017-09-03T15:22:36.848Z,7.80
2017-09-03T15:25:03.072Z,6.73
2017-09-03T15:27:29.294Z,4.20
2017-09-03T15:29:56.332Z,4.27
2017-09-03T15:32:23.026Z,5.70
2017-09-03T15:34:49.426Z,6.47
2017-09-03T15:37:15.661Z,4.70
2017-09-03T15:39:41.900Z,5.83
2017-09-03T15:42:08.138Z,4.60
2017-09-03T15:44:35.224Z,5.47
2017-09-03T15:47:01.423Z,4.43
2017-09-03T15:49:27.614Z,6.93
2017-09-03T15:51:53.807Z,7.43
2017-09-03T15:54:20.906Z,6.10
2017-09-03T15:56:47.098Z,6.57
2017-09-03T15:59:13.299Z,6.70
2017-09-03T16:01:39.513Z,5.53
2017-09-03T16:04:05.702Z,5.83
2017-09-03T16:06:31.895Z,6.47
2017-09-03T16:08:58.062Z,6.50
2017-09-03T16:11:24.291Z,9.00
2017-09-03T16:13:51.495Z,6.73
2017-09-03T16:16:17.688Z,6.47
2017-09-03T16:18:44.941Z,6.23
2017-09-03T16:21:11.893Z,7.20
2017-09-03T16:23:38.459Z,9.50
2017-09-03T16:26:04.651Z,7.10
2017-09-03T16:28:30.852Z,6.00
2017-09-03T16:30:57.055Z,6.97
2017-09-03T16:33:23.243Z,8.20
2017-09-03T16:35:50.242Z,7.07
2017-09-03T16:38:17.459Z,8.47
2017-09-03T16:40:44.582Z,6.07
2017-09-03T16:43:10.783Z,7.37
2017-09-03T16:45:36.979Z,6.43
2017-09-03T16:48:03.187Z,8.00
2017-09-03T16:50:29.955Z,8.80
2017-09-03T16:52:56.208Z,7.90
2017-09-03T16:55:22.392Z,9.10
2017-09-03T16:57:49.475Z,7.80
2017-09-03T17:00:15.719Z,13.43
2017-09-03T17:02:41.947Z,8.87
2017-09-03T17:05:08.164Z,13.60
2017-09-03T17:07:34.386Z,8.47
2017-09-03T17:10:01.530Z,43.77
2017-09-03T17:12:27.774Z,15.63
2017-09-03T17:14:53.972Z,18.00
2017-09-03T17:17:20.735Z,10.03
2017-09-03T17:19:46.972Z,10.93
2017-09-03T17:22:13.233Z,9.50
2017-09-03T17:24:39.451Z,12.43
2017-09-03T17:27:05.665Z,11.60
2017-09-03T17:29:31.877Z,8.17
2017-09-03T17:31:58.104Z,9.50
2017-09-03T17:34:31.126Z,8.30
2017-09-03T17:37:04.500Z,11.23
2017-09-03T17:39:50.536Z,7.53
2017-09-03T17:42:19.930Z,10.57
2017-09-03T17:44:46.263Z,8.50
2017-09-03T17:47:13.428Z,7.43
2017-09-03T17:49:39.592Z,9.03
2017-09-03T17:52:05.806Z,7.73
2017-09-03T17:54:32.050Z,8.30
2017-09-03T17:56:58.291Z,8.33
2017-09-03T17:59:24.515Z,12.17
2017-09-03T18:01:50.717Z,9.07
2017-09-03T18:07:16.513Z,10.97
2017-09-03T18:09:42.851Z,10.10
2017-09-03T18:12:11.041Z,15.13
2017-09-03T18:14:37.783Z,10.17
2017-09-03T18:17:05.366Z,9.37
2017-09-03T18:19:31.603Z,10.97
2017-09-03T18:21:57.930Z,7.40
2017-09-03T18:24:24.199Z,6.67
2017-09-03T18:26:51.068Z,6.33
2017-09-03T18:29:18.525Z,7.60
2017-09-03T18:34:36.468Z,5.90
2017-09-03T18:37:02.744Z,5.80
2017-09-03T18:39:35.792Z,9.33
2017-09-03T18:42:04.110Z,6.33
2017-09-03T18:44:31.885Z,6.53
2017-09-03T18:46:58.199Z,5.97
2017-09-03T18:49:24.529Z,7.30
2017-09-03T18:52:03.690Z,6.13
2017-09-03T18:54:33.909Z,7.97
2017-09-03T18:57:00.189Z,6.57
2017-09-03T18:59:27.070Z,7.10
2017-09-03T19:01:54.999Z,6.40
2017-09-03T19:04:25.094Z,7.63
2017-09-03T19:06:51.340Z,5.63
2017-09-03T19:09:17.613Z,6.13
2017-09-03T19:11:45.441Z,7.57
2017-09-03T19:14:11.707Z,7.60
2017-09-03T19:16:38.569Z,6.50
2017-09-03T19:19:04.782Z,8.37
2017-09-03T19:21:32.111Z,9.30
2017-09-03T19:23:58.347Z,12.87
2017-09-03T19:26:26.097Z,8.07
2017-09-03T19:28:52.471Z,6.80
2017-09-03T19:31:20.262Z,7.47
2017-09-03T19:33:46.550Z,11.23
2017-09-03T19:36:13.714Z,13.20
2017-09-03T19:38:43.864Z,7.20
2017-09-03T19:41:10.083Z,7.10
2017-09-03T19:43:36.298Z,7.83
2017-09-03T19:46:02.817Z,7.57
2017-09-03T19:48:29.011Z,6.50
2017-09-03T19:50:56.149Z,7.57
2017-09-03T19:53:22.730Z,7.33
2017-09-03T19:55:49.977Z,7.50
2017-09-03T19:58:16.263Z,6.93
2017-09-03T20:00:42.493Z,7.97
2017-09-03T20:03:11.504Z,6.93
2017-09-03T20:05:37.689Z,9.60
2017-09-03T20:08:03.904Z,7.30
2017-09-03T20:10:30.188Z,6.47
2017-09-03T20:12:56.400Z,5.80
2017-09-03T20:15:22.634Z,10.60
2017-09-03T20:17:48.922Z,7.37
2017-09-03T20:20:15.100Z,7.60
2017-09-03T20:22:41.286Z,7.50
2017-09-03T20:25:07.486Z,7.97
2017-09-03T20:27:33.700Z,10.53
2017-09-03T20:30:00.558Z,9.73
2017-09-03T20:32:26.737Z,9.50
2017-09-03T20:34:52.917Z,10.60
2017-09-03T20:37:19.124Z,7.93
2017-09-03T20:39:45.296Z,8.07
2017-09-03T20:42:11.512Z,7.93
2017-09-03T20:44:38.663Z,7.43
2017-09-03T20:47:05.889Z,8.70
2017-09-03T20:49:32.427Z,9.73
2017-09-03T20:51:59.888Z,10.43
2017-09-03T20:54:26.169Z,7.27
2017-09-03T20:56:52.419Z,9.33
2017-09-03T20:59:18.631Z,10.00
2017-09-03T21:01:44.814Z,8.60
2017-09-03T21:04:11.494Z,8.37
2017-09-03T21:06:37.699Z,9.10
2017-09-03T21:09:03.977Z,9.07
2017-09-03T21:11:30.267Z,7.37
2017-09-03T21:13:56.498Z,8.57
2017-09-03T21:16:23.425Z,7.97
2017-09-03T21:18:49.573Z,9.13
2017-09-03T21:21:15.996Z,8.40
2017-09-03T21:23:42.199Z,7.20
2017-09-03T21:26:08.395Z,6.60
2017-09-03T21:28:34.607Z,9.10
2017-09-03T21:31:00.822Z,7.80
2017-09-03T21:33:28.238Z,7.60
2017-09-03T21:35:54.437Z,8.30
2017-09-03T21:38:20.623Z,11.73
2017-09-03T21:40:46.873Z,11.10
2017-09-03T21:43:14.256Z,11.63
2017-09-03T21:45:40.424Z,8.33
2017-09-03T21:48:07.149Z,10.30
2017-09-03T21:50:33.337Z,9.77
2017-09-03T21:52:59.549Z,9.23
2017-09-03T21:55:25.734Z,11.23
2017-09-03T21:57:52.203Z,9.37
2017-09-03T22:00:18.372Z,9.43
2017-09-03T22:02:44.742Z,11.00
2017-09-03T22:05:10.916Z,11.97
2017-09-03T22:07:37.128Z,9.27
2017-09-03T22:10:03.323Z,10.93
2017-09-03T22:12:30.434Z,8.93
2017-09-03T22:14:56.625Z,9.70
2017-09-03T22:17:23.466Z,8.60
2017-09-03T22:19:53.591Z,12.50
2017-09-03T22:22:19.759Z,10.10
2017-09-03T22:24:45.922Z,8.37
2017-09-03T22:27:12.112Z,8.40
2017-09-03T22:29:38.303Z,10.47
2017-09-03T22:32:04.498Z,10.50
2017-09-03T22:34:30.647Z,8.17
2017-09-03T22:36:56.798Z,9.17
2017-09-03T22:39:22.968Z,10.30
2017-09-03T22:41:49.387Z,9.23
2017-09-03T22:44:15.596Z,9.30
2017-09-03T22:46:41.745Z,8.13
2017-09-03T22:49:07.935Z,8.80
2017-09-03T22:51:34.133Z,8.30
2017-09-03T22:54:00.303Z,8.20
2017-09-03T22:56:26.472Z,9.70
2017-09-03T22:58:52.635Z,10.67
2017-09-03T23:01:18.834Z,9.40
2017-09-03T23:03:44.984Z,7.83
2017-09-03T23:06:11.144Z,8.40
2017-09-03T23:08:37.302Z,9.10
2017-09-03T23:11:03.479Z,6.83
2017-09-03T23:13:29.997Z,8.60
2017-09-03T23:15:56.160Z,11.17
2017-09-03T23:18:22.300Z,7.80
2017-09-03T23:20:48.505Z,7.43
2017-09-03T23:23:14.687Z,8.17
2017-09-03T23:25:40.923Z,8.30
2017-09-03T23:28:07.058Z,8.57
2017-09-03T23:30:33.258Z,8.10
2017-09-03T23:32:59.423Z,9.30
2017-09-03T23:35:25.618Z,7.87
2017-09-03T23:37:52.262Z,8.90
2017-09-03T23:40:18.570Z,7.67
2017-09-03T23:42:44.742Z,9.77
2017-09-03T23:55:01.901Z,10.50
2017-09-03T23:57:28.793Z,7.47
2017-09-03T23:59:54.983Z,8.20
